Valle Di Andalusia — IBTJ — position and weather

sailwx.info

Track history (hours):
 
Tides and Currents Weather Stations Pressure Air Temp Water Temp Dewpoint Dewpoint Depression Visibility Wind Speed Wind Dir Waves Ship Positions

Valle Di Andalusia

Last reported at 2017-Jan-20 12:33 UTC. Time now 2017-Jan-24 21:22 UTC.
Position N 36°02' E 014°39'.

Length 176 m; draft 9.5 m.

Type: Ship (hazmat cat D). MMSI: 247046200.

Date/timePositionNaut miles runAvg speedWind from/ knotsBaromVisibWave heightAir tempDewpointWater temp
2017-Jan-20 12:33N 36°02' E 014°39'6 5.8
2017-Jan-20 11:33N 35°58' E 014°34'2 1.6
2017-Jan-20 10:33N 35°57' E 014°35'2 2.0
2017-Jan-20 09:33N 35°58' E 014°38'2 2.3
2017-Jan-20 08:33N 36°00' E 014°39'5 4.3
2017-Jan-20 07:25N 36°04' E 014°42'1 0.9
2017-Jan-20 06:33N 36°04' E 014°43'1 0.1
2017-Jan-20 01:30N 36°04' E 014°44'1 0.8
2017-Jan-20 00:15N 36°04' E 014°42'1 0.7
2017-Jan-19 23:33N 36°04' E 014°42'2 2.4
2017-Jan-19 22:33N 36°02' E 014°45'2 1.9
2017-Jan-19 21:33N 36°02' E 014°47'1 1.3
2017-Jan-19 20:33N 36°01' E 014°48'  
2017-Jan-16 20:28N 35°50' E 015°40'6 4.9
2017-Jan-16 19:13N 35°46' E 015°34'43 2.0
2017-Jan-15 21:06N 36°11' E 014°50'1 1.2
2017-Jan-15 20:28N 36°11' E 014°49'2 2.0
2017-Jan-15 19:33N 36°12' E 014°48'2 1.6
2017-Jan-15 18:33N 36°13' E 014°46'2 2.2
2017-Jan-15 17:33N 36°14' E 014°44'2 2.3
2017-Jan-15 16:33N 36°16' E 014°41'2 1.7
2017-Jan-15 15:33N 36°16' E 014°39'1 1.3
2017-Jan-15 14:33N 36°15' E 014°40'3 2.7
2017-Jan-15 13:33N 36°13' E 014°43'5 4.6
2017-Jan-15 12:33N 36°10' E 014°47'6 1.9
2017-Jan-15 09:18N 36°04' E 014°43'8 2.9
2017-Jan-15 06:32N 36°09' E 014°35'1313.1
2017-Jan-15 05:33N 36°17' E 014°23'1413.4
2017-Jan-15 04:33N 36°23' E 014°08'1313.2
2017-Jan-15 03:32N 36°28' E 013°52'  
Track history (hours):
 
Tides and Currents Weather Stations Pressure Air Temp Water Temp Dewpoint Dewpoint Depression Visibility Wind Speed Wind Dir Waves Ship Positions

Valle Di Andalusia

Last reported at 2017-Jan-20 12:33 UTC. Time now 2017-Jan-24 21:22 UTC.
Position N 36°02' E 014°39'.

Length 176 m; draft 9.5 m.

Type: Ship (hazmat cat D). MMSI: 247046200.

Date/timePositionNaut miles runAvg speedWind from/ knotsBaromVisibWave heightAir tempDewpointWater temp
2017-Jan-20 12:33N 36°02' E 014°39'6 5.8
2017-Jan-20 11:33N 35°58' E 014°34'2 1.6
2017-Jan-20 10:33N 35°57' E 014°35'2 2.0
2017-Jan-20 09:33N 35°58' E 014°38'2 2.3
2017-Jan-20 08:33N 36°00' E 014°39'5 4.3
2017-Jan-20 07:25N 36°04' E 014°42'1 0.9
2017-Jan-20 06:33N 36°04' E 014°43'1 0.1
2017-Jan-20 01:30N 36°04' E 014°44'1 0.8
2017-Jan-20 00:15N 36°04' E 014°42'1 0.7
2017-Jan-19 23:33N 36°04' E 014°42'2 2.4
2017-Jan-19 22:33N 36°02' E 014°45'2 1.9
2017-Jan-19 21:33N 36°02' E 014°47'1 1.3
2017-Jan-19 20:33N 36°01' E 014°48'  
2017-Jan-16 20:28N 35°50' E 015°40'6 4.9
2017-Jan-16 19:13N 35°46' E 015°34'43 2.0
2017-Jan-15 21:06N 36°11' E 014°50'1 1.2
2017-Jan-15 20:28N 36°11' E 014°49'2 2.0
2017-Jan-15 19:33N 36°12' E 014°48'2 1.6
2017-Jan-15 18:33N 36°13' E 014°46'2 2.2
2017-Jan-15 17:33N 36°14' E 014°44'2 2.3
2017-Jan-15 16:33N 36°16' E 014°41'2 1.7
2017-Jan-15 15:33N 36°16' E 014°39'1 1.3
2017-Jan-15 14:33N 36°15' E 014°40'3 2.7
2017-Jan-15 13:33N 36°13' E 014°43'5 4.6
2017-Jan-15 12:33N 36°10' E 014°47'6 1.9
2017-Jan-15 09:18N 36°04' E 014°43'8 2.9
2017-Jan-15 06:32N 36°09' E 014°35'1313.1
2017-Jan-15 05:33N 36°17' E 014°23'1413.4
2017-Jan-15 04:33N 36°23' E 014°08'1313.2
2017-Jan-15 03:32N 36°28' E 013°52'  

Dump ship's entire track history